Impacts METAR Board
IDs:

KATL - Atlanta/Hartsfield-J, GA, US

Updated at: 0300 UTC 22 Jun 2018
Potential Impact None Slight Moderate High
Time 21/15Z 21/16Z 21/17Z 21/18Z 21/19Z 21/20Z 21/21Z 21/22Z 21/23Z 22/00Z 22/01Z 22/02Z 22/03Z
Temp85 85 88 84 88 86 79 80 77 77 76 76 76
Dewpt70 71 72 70 71 72 74 71 71 70 71 72 72
Altim29.93 29.93 29.92 29.90 29.88 29.87 29.87 29.87 29.88 29.88 29.88 29.89 29.89
VIS10 10 10 10 10 10 10 10 10 10 10 10 10
CIG150 150 200 200 150 150 100 150 100 150 200 100 --
CoverBKNBKNBKNBKNBKNBKNBKNBKNOVCOVCBKNBKNSCT
FltCatVFRVFRVFRVFRVFRVFRVFRVFRVFRVFRVFRVFRVFR
WX-------------RA-RA-RA--------
WDir220250270260240260270270240230210220230
WSpd10 9 9 8 12 12 7 9 8 6 4 6 7
WGst-- -- -- -- -- -- -- -- -- -- -- -- --
Raw hourly METARs
KATL 211452Z 22010KT 10SM FEW030 BKN150 BKN200 29/21 A2993 RMK AO2 SLP124 T02940211 50003
KATL 211552Z 25009KT 10SM FEW035 BKN150 BKN200 29/22 A2993 RMK AO2 LTG DSNT W SLP122 CB DSNT W ACC NE T02940217
KATL 211652Z 27009KT 10SM SCT034TCU SCT150 BKN200 31/22 A2992 RMK AO2 LTG DSNT SW AND W SLP117 CB DSNT SW TCU E-SE-S-SW T03110222
KATL 211752Z 26008KT 10SM FEW035 SCT080 BKN200 29/21 A2990 RMK AO2 LTG DSNT E RAB03E29 SLP111 CB DSNT E-SE & DSNT SW MDT CU DSNT NE & NW P0000 60000 T02890211 10311 20256 58012
KATL 211852Z 24012KT 10SM FEW040 SCT080 BKN150 BKN250 31/22 A2988 RMK AO2 RAB04E19 SLP105 CB DSNT E & S & NW TCU DSNT NE-E & SE-S-SW SHRA DSNT NW P0000 T03110217
KATL 211952Z 26012KT 10SM FEW030 SCT080 BKN150 BKN250 30/22 A2987 RMK AO2 LTG DSNT ALQDS SLP101 CB DSNT N & E-SE & SW-NW SHRA DSNT SW-NW T03000222
KATL 212052Z 27007KT 10SM -RA FEW020CB SCT070 BKN100 BKN200 26/23 A2987 RMK AO2 RAB19 SLP103 TS DSIPT CB NE-SE MOV E SHRA VC NE-SE P0000 60000 T02610233 55002
KATL 212152Z 27009KT 10SM -RA FEW020 SCT110 BKN150 BKN200 27/22 A2987 RMK AO2 RAE00B49 SLP104 P0000 T02670217
KATL 212252Z 24008KT 10SM -RA FEW070 BKN100 BKN150 OVC200 25/22 A2988 RMK AO2 SLP107 P0001 T02500217
KATL 212352Z 23006KT 10SM SCT110 BKN150 OVC250 25/21 A2988 RMK AO2 RAE06 SLP108 P0000 60001 T02500211 10311 20250 53003
KATL 220052Z 21004KT 10SM FEW035 SCT100 BKN200 BKN250 24/22 A2988 RMK AO2 SLP109 T02440217
KATL 220152Z 22006KT 10SM BKN100 BKN200 BKN250 24/22 A2989 RMK AO2 SLP110 T02440222
KATL 220252Z 23007KT 10SM FEW100 SCT250 24/22 A2989 RMK AO2 SLP111 T02440222 51004



Page loaded:  03:11 UTC  |   08:11 PM Pacific  |   09:11 PM Mountain  |   10:11 PM Central  |   11:11 PM Eastern

 

ADVISORIES

FORECASTS

FORECASTS

OBSERVATIONS

USER TOOLS

ABOUT US